sensor_id;sensor_type;location;lat;lon;timestamp;P1;durP1;ratioP1;P2;durP2;ratioP2
20056;SDS011;10189;49.546;7.906;2024-01-15T00:00:18;65.63;;;27.00;;
20056;SDS011;10189;49.546;7.906;2024-01-15T00:02:44;66.43;;;26.02;;
20056;SDS011;10189;49.546;7.906;2024-01-15T00:05:10;70.40;;;26.83;;
20056;SDS011;10189;49.546;7.906;2024-01-15T00:07:35;65.20;;;26.02;;
20056;SDS011;10189;49.546;7.906;2024-01-15T00:10:01;64.07;;;26.90;;
20056;SDS011;10189;49.546;7.906;2024-01-15T00:12:28;67.13;;;25.90;;
20056;SDS011;10189;49.546;7.906;2024-01-15T00:14:53;69.72;;;26.52;;
20056;SDS011;10189;49.546;7.906;2024-01-15T00:17:19;64.03;;;26.02;;
20056;SDS011;10189;49.546;7.906;2024-01-15T00:19:45;67.60;;;26.55;;
20056;SDS011;10189;49.546;7.906;2024-01-15T00:22:11;68.70;;;26.63;;
20056;SDS011;10189;49.546;7.906;2024-01-15T00:24:37;65.50;;;26.90;;
20056;SDS011;10189;49.546;7.906;2024-01-15T00:27:03;69.90;;;26.60;;
20056;SDS011;10189;49.546;7.906;2024-01-15T00:29:29;73.93;;;29.15;;
20056;SDS011;10189;49.546;7.906;2024-01-15T00:31:55;65.72;;;26.85;;
20056;SDS011;10189;49.546;7.906;2024-01-15T00:34:21;67.72;;;26.05;;
20056;SDS011;10189;49.546;7.906;2024-01-15T00:36:46;65.18;;;26.80;;
20056;SDS011;10189;49.546;7.906;2024-01-15T00:39:12;69.25;;;27.15;;
20056;SDS011;10189;49.546;7.906;2024-01-15T00:41:38;63.60;;;27.33;;
20056;SDS011;10189;49.546;7.906;2024-01-15T00:44:04;63.75;;;26.10;;
20056;SDS011;10189;49.546;7.906;2024-01-15T00:46:30;62.22;;;25.65;;
20056;SDS011;10189;49.546;7.906;2024-01-15T00:48:55;63.75;;;26.23;;
20056;SDS011;10189;49.546;7.906;2024-01-15T00:51:21;67.60;;;27.08;;
20056;SDS011;10189;49.546;7.906;2024-01-15T00:53:47;60.95;;;26.25;;
20056;SDS011;10189;49.546;7.906;2024-01-15T00:56:13;62.10;;;26.05;;
20056;SDS011;10189;49.546;7.906;2024-01-15T00:58:39;64.47;;;26.27;;
20056;SDS011;10189;49.546;7.906;2024-01-15T01:01:05;63.97;;;25.67;;
20056;SDS011;10189;49.546;7.906;2024-01-15T01:03:30;68.00;;;25.98;;
20056;SDS011;10189;49.546;7.906;2024-01-15T01:05:56;59.78;;;24.73;;
20056;SDS011;10189;49.546;7.906;2024-01-15T01:08:22;68.28;;;25.67;;
20056;SDS011;10189;49.546;7.906;2024-01-15T01:10:48;67.15;;;25.23;;
20056;SDS011;10189;49.546;7.906;2024-01-15T01:13:14;62.28;;;25.05;;
20056;SDS011;10189;49.546;7.906;2024-01-15T01:15:39;64.45;;;25.45;;
20056;SDS011;10189;49.546;7.906;2024-01-15T01:18:05;61.47;;;26.52;;
20056;SDS011;10189;49.546;7.906;2024-01-15T01:20:31;70.25;;;27.05;;
20056;SDS011;10189;49.546;7.906;2024-01-15T01:22:57;66.53;;;25.05;;
20056;SDS011;10189;49.546;7.906;2024-01-15T01:25:23;60.40;;;25.67;;
20056;SDS011;10189;49.546;7.906;2024-01-15T01:27:49;60.42;;;25.52;;
20056;SDS011;10189;49.546;7.906;2024-01-15T01:30:15;67.88;;;26.23;;
20056;SDS011;10189;49.546;7.906;2024-01-15T01:32:40;70.20;;;25.55;;
20056;SDS011;10189;49.546;7.906;2024-01-15T01:35:06;66.80;;;26.52;;
20056;SDS011;10189;49.546;7.906;2024-01-15T01:37:32;67.55;;;26.15;;
20056;SDS011;10189;49.546;7.906;2024-01-15T01:39:59;58.10;;;23.95;;
20056;SDS011;10189;49.546;7.906;2024-01-15T01:42:25;59.28;;;23.38;;
20056;SDS011;10189;49.546;7.906;2024-01-15T01:44:51;61.58;;;23.90;;
20056;SDS011;10189;49.546;7.906;2024-01-15T01:47:17;68.68;;;24.83;;
20056;SDS011;10189;49.546;7.906;2024-01-15T01:49:43;63.17;;;24.58;;
20056;SDS011;10189;49.546;7.906;2024-01-15T01:52:10;60.70;;;22.92;;
20056;SDS011;10189;49.546;7.906;2024-01-15T01:54:36;70.28;;;25.30;;
20056;SDS011;10189;49.546;7.906;2024-01-15T01:57:05;61.47;;;23.67;;
20056;SDS011;10189;49.546;7.906;2024-01-15T01:59:32;60.30;;;24.20;;
20056;SDS011;10189;49.546;7.906;2024-01-15T02:02:00;56.72;;;23.55;;
20056;SDS011;10189;49.546;7.906;2024-01-15T02:04:29;60.40;;;23.67;;
20056;SDS011;10189;49.546;7.906;2024-01-15T02:06:56;63.67;;;24.52;;
20056;SDS011;10189;49.546;7.906;2024-01-15T02:09:23;62.72;;;25.38;;
20056;SDS011;10189;49.546;7.906;2024-01-15T02:11:50;62.75;;;23.48;;
20056;SDS011;10189;49.546;7.906;2024-01-15T02:14:16;69.28;;;25.02;;
20056;SDS011;10189;49.546;7.906;2024-01-15T02:16:42;58.83;;;24.23;;
20056;SDS011;10189;49.546;7.906;2024-01-15T02:19:14;58.60;;;22.95;;
20056;SDS011;10189;49.546;7.906;2024-01-15T02:21:42;57.03;;;21.70;;
20056;SDS011;10189;49.546;7.906;2024-01-15T02:24:08;58.40;;;22.80;;
20056;SDS011;10189;49.546;7.906;2024-01-15T02:26:34;58.03;;;22.30;;
20056;SDS011;10189;49.546;7.906;2024-01-15T02:29:02;58.92;;;23.20;;
20056;SDS011;10189;49.546;7.906;2024-01-15T02:31:28;55.72;;;21.55;;
20056;SDS011;10189;49.546;7.906;2024-01-15T02:33:54;55.10;;;23.35;;
20056;SDS011;10189;49.546;7.906;2024-01-15T02:36:20;56.95;;;23.00;;
20056;SDS011;10189;49.546;7.906;2024-01-15T02:38:45;51.25;;;20.20;;
20056;SDS011;10189;49.546;7.906;2024-01-15T02:41:11;54.13;;;20.85;;
20056;SDS011;10189;49.546;7.906;2024-01-15T02:43:39;52.00;;;22.55;;
20056;SDS011;10189;49.546;7.906;2024-01-15T02:46:06;58.05;;;22.38;;
20056;SDS011;10189;49.546;7.906;2024-01-15T02:48:32;52.15;;;20.65;;
20056;SDS011;10189;49.546;7.906;2024-01-15T02:51:00;54.33;;;20.98;;
20056;SDS011;10189;49.546;7.906;2024-01-15T02:53:26;47.45;;;21.52;;
20056;SDS011;10189;49.546;7.906;2024-01-15T02:55:52;49.13;;;19.70;;
20056;SDS011;10189;49.546;7.906;2024-01-15T02:58:18;50.85;;;20.73;;
20056;SDS011;10189;49.546;7.906;2024-01-15T03:00:44;55.35;;;21.70;;
20056;SDS011;10189;49.546;7.906;2024-01-15T03:03:11;52.25;;;20.17;;
20056;SDS011;10189;49.546;7.906;2024-01-15T03:05:37;49.85;;;19.48;;
20056;SDS011;10189;49.546;7.906;2024-01-15T03:08:03;50.58;;;20.20;;
20056;SDS011;10189;49.546;7.906;2024-01-15T03:10:29;49.08;;;19.80;;
20056;SDS011;10189;49.546;7.906;2024-01-15T03:12:55;51.42;;;22.30;;
20056;SDS011;10189;49.546;7.906;2024-01-15T03:15:22;47.92;;;20.50;;
20056;SDS011;10189;49.546;7.906;2024-01-15T03:17:48;47.22;;;19.40;;
20056;SDS011;10189;49.546;7.906;2024-01-15T03:20:14;51.63;;;21.67;;
20056;SDS011;10189;49.546;7.906;2024-01-15T03:22:40;49.75;;;20.45;;
20056;SDS011;10189;49.546;7.906;2024-01-15T03:25:06;51.25;;;21.60;;
20056;SDS011;10189;49.546;7.906;2024-01-15T03:27:32;48.28;;;19.60;;
20056;SDS011;10189;49.546;7.906;2024-01-15T03:29:58;51.78;;;21.08;;
20056;SDS011;10189;49.546;7.906;2024-01-15T03:32:24;54.58;;;21.77;;
20056;SDS011;10189;49.546;7.906;2024-01-15T03:34:50;55.08;;;21.08;;
20056;SDS011;10189;49.546;7.906;2024-01-15T03:37:17;55.55;;;21.58;;
20056;SDS011;10189;49.546;7.906;2024-01-15T03:39:43;53.83;;;21.88;;
20056;SDS011;10189;49.546;7.906;2024-01-15T03:42:09;57.88;;;22.40;;
20056;SDS011;10189;49.546;7.906;2024-01-15T03:44:35;52.08;;;21.65;;
20056;SDS011;10189;49.546;7.906;2024-01-15T03:47:00;57.35;;;21.75;;
20056;SDS011;10189;49.546;7.906;2024-01-15T03:49:26;62.72;;;22.90;;
20056;SDS011;10189;49.546;7.906;2024-01-15T03:51:52;53.78;;;21.13;;
20056;SDS011;10189;49.546;7.906;2024-01-15T03:54:18;60.08;;;23.55;;
20056;SDS011;10189;49.546;7.906;2024-01-15T03:56:44;58.65;;;23.27;;
20056;SDS011;10189;49.546;7.906;2024-01-15T03:59:10;50.55;;;21.88;;
20056;SDS011;10189;49.546;7.906;2024-01-15T04:01:35;56.45;;;20.75;;
20056;SDS011;10189;49.546;7.906;2024-01-15T04:04:01;51.22;;;21.65;;
20056;SDS011;10189;49.546;7.906;2024-01-15T04:06:27;55.92;;;21.58;;
20056;SDS011;10189;49.546;7.906;2024-01-15T04:08:53;53.95;;;22.75;;
20056;SDS011;10189;49.546;7.906;2024-01-15T04:11:19;52.20;;;21.80;;
20056;SDS011;10189;49.546;7.906;2024-01-15T04:13:45;51.78;;;21.23;;
20056;SDS011;10189;49.546;7.906;2024-01-15T04:16:10;53.17;;;21.88;;
20056;SDS011;10189;49.546;7.906;2024-01-15T04:18:36;48.92;;;21.77;;
20056;SDS011;10189;49.546;7.906;2024-01-15T04:21:04;54.38;;;20.95;;
20056;SDS011;10189;49.546;7.906;2024-01-15T04:23:32;47.13;;;21.60;;
20056;SDS011;10189;49.546;7.906;2024-01-15T04:25:58;49.80;;;20.70;;
20056;SDS011;10189;49.546;7.906;2024-01-15T04:28:24;46.97;;;20.58;;
20056;SDS011;10189;49.546;7.906;2024-01-15T04:30:50;45.83;;;21.52;;
20056;SDS011;10189;49.546;7.906;2024-01-15T04:33:16;43.38;;;19.98;;
20056;SDS011;10189;49.546;7.906;2024-01-15T04:35:42;52.80;;;21.42;;
20056;SDS011;10189;49.546;7.906;2024-01-15T04:38:07;51.42;;;21.30;;
20056;SDS011;10189;49.546;7.906;2024-01-15T04:40:33;44.80;;;20.13;;
20056;SDS011;10189;49.546;7.906;2024-01-15T04:42:59;47.03;;;20.00;;
20056;SDS011;10189;49.546;7.906;2024-01-15T04:45:25;49.33;;;21.02;;
20056;SDS011;10189;49.546;7.906;2024-01-15T04:47:54;44.78;;;20.00;;
20056;SDS011;10189;49.546;7.906;2024-01-15T04:50:23;44.50;;;19.77;;
20056;SDS011;10189;49.546;7.906;2024-01-15T04:52:49;47.25;;;20.02;;
20056;SDS011;10189;49.546;7.906;2024-01-15T04:55:15;45.70;;;20.35;;
20056;SDS011;10189;49.546;7.906;2024-01-15T04:57:41;41.42;;;19.83;;
20056;SDS011;10189;49.546;7.906;2024-01-15T05:00:07;46.30;;;20.60;;
20056;SDS011;10189;49.546;7.906;2024-01-15T05:02:34;51.10;;;20.63;;
20056;SDS011;10189;49.546;7.906;2024-01-15T05:04:59;48.83;;;20.15;;
20056;SDS011;10189;49.546;7.906;2024-01-15T05:07:25;41.50;;;20.50;;
20056;SDS011;10189;49.546;7.906;2024-01-15T05:09:51;48.60;;;20.20;;
20056;SDS011;10189;49.546;7.906;2024-01-15T05:12:17;49.90;;;22.15;;
20056;SDS011;10189;49.546;7.906;2024-01-15T05:14:43;48.78;;;21.27;;
20056;SDS011;10189;49.546;7.906;2024-01-15T05:17:09;46.58;;;21.10;;
20056;SDS011;10189;49.546;7.906;2024-01-15T05:19:35;48.53;;;21.77;;
20056;SDS011;10189;49.546;7.906;2024-01-15T05:22:00;48.35;;;21.73;;
20056;SDS011;10189;49.546;7.906;2024-01-15T05:24:26;44.72;;;21.63;;
20056;SDS011;10189;49.546;7.906;2024-01-15T05:26:52;48.60;;;23.60;;
20056;SDS011;10189;49.546;7.906;2024-01-15T05:29:18;79.20;;;40.17;;
20056;SDS011;10189;49.546;7.906;2024-01-15T05:31:44;62.22;;;28.55;;
20056;SDS011;10189;49.546;7.906;2024-01-15T05:34:10;64.22;;;29.63;;
20056;SDS011;10189;49.546;7.906;2024-01-15T05:36:36;71.50;;;35.13;;
20056;SDS011;10189;49.546;7.906;2024-01-15T05:39:02;53.03;;;23.02;;
20056;SDS011;10189;49.546;7.906;2024-01-15T05:41:28;51.63;;;22.27;;
20056;SDS011;10189;49.546;7.906;2024-01-15T05:43:54;66.53;;;28.90;;
20056;SDS011;10189;49.546;7.906;2024-01-15T05:46:19;65.57;;;34.05;;
20056;SDS011;10189;49.546;7.906;2024-01-15T05:48:45;50.05;;;22.75;;
20056;SDS011;10189;49.546;7.906;2024-01-15T05:51:11;50.08;;;22.70;;
20056;SDS011;10189;49.546;7.906;2024-01-15T05:53:37;50.90;;;23.58;;
20056;SDS011;10189;49.546;7.906;2024-01-15T05:56:05;56.22;;;24.00;;
20056;SDS011;10189;49.546;7.906;2024-01-15T05:58:31;57.85;;;24.17;;
20056;SDS011;10189;49.546;7.906;2024-01-15T06:00:57;55.05;;;23.90;;
20056;SDS011;10189;49.546;7.906;2024-01-15T06:03:23;59.55;;;25.38;;
20056;SDS011;10189;49.546;7.906;2024-01-15T06:05:48;53.97;;;23.95;;
20056;SDS011;10189;49.546;7.906;2024-01-15T06:08:14;54.78;;;24.23;;
20056;SDS011;10189;49.546;7.906;2024-01-15T06:10:40;50.90;;;22.15;;
20056;SDS011;10189;49.546;7.906;2024-01-15T06:13:06;58.78;;;25.80;;
20056;SDS011;10189;49.546;7.906;2024-01-15T06:15:32;58.60;;;24.58;;
20056;SDS011;10189;49.546;7.906;2024-01-15T06:17:58;57.22;;;23.33;;
20056;SDS011;10189;49.546;7.906;2024-01-15T06:20:23;53.92;;;24.33;;
20056;SDS011;10189;49.546;7.906;2024-01-15T06:22:49;67.75;;;31.45;;
20056;SDS011;10189;49.546;7.906;2024-01-15T06:25:15;72.72;;;34.45;;
20056;SDS011;10189;49.546;7.906;2024-01-15T06:27:41;56.78;;;26.77;;
20056;SDS011;10189;49.546;7.906;2024-01-15T06:30:07;51.60;;;23.50;;
20056;SDS011;10189;49.546;7.906;2024-01-15T06:32:33;45.70;;;22.70;;
20056;SDS011;10189;49.546;7.906;2024-01-15T06:34:59;51.58;;;22.77;;
20056;SDS011;10189;49.546;7.906;2024-01-15T06:37:25;50.10;;;23.40;;
20056;SDS011;10189;49.546;7.906;2024-01-15T06:39:51;45.50;;;21.42;;
20056;SDS011;10189;49.546;7.906;2024-01-15T06:42:16;50.88;;;22.98;;
20056;SDS011;10189;49.546;7.906;2024-01-15T06:44:42;49.80;;;23.05;;
20056;SDS011;10189;49.546;7.906;2024-01-15T06:47:08;46.45;;;22.05;;
20056;SDS011;10189;49.546;7.906;2024-01-15T06:49:34;55.45;;;25.50;;
20056;SDS011;10189;49.546;7.906;2024-01-15T06:52:00;49.70;;;22.20;;
20056;SDS011;10189;49.546;7.906;2024-01-15T06:54:25;46.95;;;22.70;;
20056;SDS011;10189;49.546;7.906;2024-01-15T06:56:51;57.78;;;28.75;;
20056;SDS011;10189;49.546;7.906;2024-01-15T06:59:17;54.60;;;23.88;;
20056;SDS011;10189;49.546;7.906;2024-01-15T07:01:43;59.42;;;27.00;;
20056;SDS011;10189;49.546;7.906;2024-01-15T07:04:09;46.35;;;23.02;;
20056;SDS011;10189;49.546;7.906;2024-01-15T07:06:35;53.25;;;25.40;;
20056;SDS011;10189;49.546;7.906;2024-01-15T07:09:01;48.10;;;22.50;;
20056;SDS011;10189;49.546;7.906;2024-01-15T07:11:27;50.15;;;24.58;;
20056;SDS011;10189;49.546;7.906;2024-01-15T07:13:53;62.38;;;29.05;;
20056;SDS011;10189;49.546;7.906;2024-01-15T07:16:18;73.80;;;34.72;;
20056;SDS011;10189;49.546;7.906;2024-01-15T07:18:44;50.17;;;23.38;;
20056;SDS011;10189;49.546;7.906;2024-01-15T07:21:10;53.95;;;24.73;;
20056;SDS011;10189;49.546;7.906;2024-01-15T07:23:36;49.38;;;23.95;;
20056;SDS011;10189;49.546;7.906;2024-01-15T07:26:02;52.72;;;23.83;;
20056;SDS011;10189;49.546;7.906;2024-01-15T07:28:30;50.70;;;23.20;;
20056;SDS011;10189;49.546;7.906;2024-01-15T07:30:57;46.38;;;23.50;;
20056;SDS011;10189;49.546;7.906;2024-01-15T07:33:22;49.33;;;22.95;;
20056;SDS011;10189;49.546;7.906;2024-01-15T07:35:49;47.78;;;22.33;;
20056;SDS011;10189;49.546;7.906;2024-01-15T07:38:15;48.83;;;23.92;;
20056;SDS011;10189;49.546;7.906;2024-01-15T07:40:43;48.17;;;22.38;;
20056;SDS011;10189;49.546;7.906;2024-01-15T07:43:08;50.17;;;23.15;;
20056;SDS011;10189;49.546;7.906;2024-01-15T07:45:34;44.60;;;21.65;;
20056;SDS011;10189;49.546;7.906;2024-01-15T07:48:00;52.08;;;24.63;;
20056;SDS011;10189;49.546;7.906;2024-01-15T07:50:26;46.65;;;22.98;;
20056;SDS011;10189;49.546;7.906;2024-01-15T07:52:52;51.00;;;24.92;;
20056;SDS011;10189;49.546;7.906;2024-01-15T07:55:18;51.05;;;24.80;;
20056;SDS011;10189;49.546;7.906;2024-01-15T07:57:44;43.25;;;22.75;;
20056;SDS011;10189;49.546;7.906;2024-01-15T08:00:10;50.00;;;25.40;;
20056;SDS011;10189;49.546;7.906;2024-01-15T08:02:36;49.10;;;22.48;;
20056;SDS011;10189;49.546;7.906;2024-01-15T08:05:02;43.00;;;22.95;;
20056;SDS011;10189;49.546;7.906;2024-01-15T08:07:27;43.47;;;22.60;;
20056;SDS011;10189;49.546;7.906;2024-01-15T08:09:53;45.45;;;23.25;;
20056;SDS011;10189;49.546;7.906;2024-01-15T08:12:19;47.67;;;23.15;;
20056;SDS011;10189;49.546;7.906;2024-01-15T08:14:45;44.72;;;23.02;;
20056;SDS011;10189;49.546;7.906;2024-01-15T08:17:11;46.72;;;22.25;;
20056;SDS011;10189;49.546;7.906;2024-01-15T08:19:37;45.47;;;22.48;;
20056;SDS011;10189;49.546;7.906;2024-01-15T08:22:04;43.03;;;20.88;;
20056;SDS011;10189;49.546;7.906;2024-01-15T08:24:29;42.33;;;21.05;;
20056;SDS011;10189;49.546;7.906;2024-01-15T08:26:56;42.90;;;21.52;;
20056;SDS011;10189;49.546;7.906;2024-01-15T08:29:22;40.92;;;21.10;;
20056;SDS011;10189;49.546;7.906;2024-01-15T08:31:49;38.80;;;20.02;;
20056;SDS011;10189;49.546;7.906;2024-01-15T08:34:15;41.50;;;21.00;;
20056;SDS011;10189;49.546;7.906;2024-01-15T08:36:41;41.03;;;21.67;;
20056;SDS011;10189;49.546;7.906;2024-01-15T08:39:07;47.05;;;22.13;;
20056;SDS011;10189;49.546;7.906;2024-01-15T08:41:34;42.53;;;20.85;;
20056;SDS011;10189;49.546;7.906;2024-01-15T08:44:00;42.42;;;21.38;;
20056;SDS011;10189;49.546;7.906;2024-01-15T08:46:28;41.13;;;21.40;;
20056;SDS011;10189;49.546;7.906;2024-01-15T08:48:55;42.03;;;20.63;;
20056;SDS011;10189;49.546;7.906;2024-01-15T08:51:21;41.00;;;21.75;;
20056;SDS011;10189;49.546;7.906;2024-01-15T08:53:47;46.53;;;23.25;;
20056;SDS011;10189;49.546;7.906;2024-01-15T08:56:13;42.28;;;21.85;;
20056;SDS011;10189;49.546;7.906;2024-01-15T08:58:39;46.38;;;23.48;;
20056;SDS011;10189;49.546;7.906;2024-01-15T09:01:05;44.10;;;21.83;;
20056;SDS011;10189;49.546;7.906;2024-01-15T09:03:31;44.28;;;22.50;;
20056;SDS011;10189;49.546;7.906;2024-01-15T09:05:59;99.20;;;51.38;;
20056;SDS011;10189;49.546;7.906;2024-01-15T09:08:25;44.20;;;22.77;;
20056;SDS011;10189;49.546;7.906;2024-01-15T09:10:52;87.32;;;46.17;;
20056;SDS011;10189;49.546;7.906;2024-01-15T09:13:18;55.33;;;28.95;;
20056;SDS011;10189;49.546;7.906;2024-01-15T09:15:44;47.70;;;25.30;;
20056;SDS011;10189;49.546;7.906;2024-01-15T09:18:10;54.97;;;27.38;;
20056;SDS011;10189;49.546;7.906;2024-01-15T09:20:36;44.83;;;24.50;;
20056;SDS011;10189;49.546;7.906;2024-01-15T09:23:03;40.65;;;21.65;;
20056;SDS011;10189;49.546;7.906;2024-01-15T09:25:29;39.13;;;21.23;;
20056;SDS011;10189;49.546;7.906;2024-01-15T09:27:55;41.38;;;21.48;;
20056;SDS011;10189;49.546;7.906;2024-01-15T09:30:21;45.47;;;22.88;;
20056;SDS011;10189;49.546;7.906;2024-01-15T09:32:47;54.40;;;27.15;;
20056;SDS011;10189;49.546;7.906;2024-01-15T09:35:13;42.85;;;22.02;;
20056;SDS011;10189;49.546;7.906;2024-01-15T09:37:39;63.13;;;31.50;;
20056;SDS011;10189;49.546;7.906;2024-01-15T09:40:05;48.67;;;26.65;;
20056;SDS011;10189;49.546;7.906;2024-01-15T09:42:33;38.38;;;20.23;;
20056;SDS011;10189;49.546;7.906;2024-01-15T09:45:01;36.55;;;19.42;;
20056;SDS011;10189;49.546;7.906;2024-01-15T09:47:28;34.88;;;19.08;;
20056;SDS011;10189;49.546;7.906;2024-01-15T09:49:55;37.67;;;19.55;;
20056;SDS011;10189;49.546;7.906;2024-01-15T09:52:23;40.17;;;22.25;;
20056;SDS011;10189;49.546;7.906;2024-01-15T09:54:50;37.30;;;18.55;;
20056;SDS011;10189;49.546;7.906;2024-01-15T09:57:17;33.78;;;18.77;;
20056;SDS011;10189;49.546;7.906;2024-01-15T09:59:43;34.75;;;19.52;;
20056;SDS011;10189;49.546;7.906;2024-01-15T10:02:10;32.28;;;18.20;;
20056;SDS011;10189;49.546;7.906;2024-01-15T10:04:42;32.75;;;17.45;;
20056;SDS011;10189;49.546;7.906;2024-01-15T10:07:09;31.30;;;17.00;;
20056;SDS011;10189;49.546;7.906;2024-01-15T10:09:42;34.42;;;18.88;;
20056;SDS011;10189;49.546;7.906;2024-01-15T10:12:09;47.28;;;29.42;;
20056;SDS011;10189;49.546;7.906;2024-01-15T10:14:36;41.40;;;21.98;;
20056;SDS011;10189;49.546;7.906;2024-01-15T10:17:11;40.58;;;22.42;;
20056;SDS011;10189;49.546;7.906;2024-01-15T10:19:39;38.15;;;20.00;;
20056;SDS011;10189;49.546;7.906;2024-01-15T10:22:07;36.20;;;19.98;;
20056;SDS011;10189;49.546;7.906;2024-01-15T10:27:10;37.17;;;20.77;;
20056;SDS011;10189;49.546;7.906;2024-01-15T10:29:36;31.65;;;17.13;;
20056;SDS011;10189;49.546;7.906;2024-01-15T10:32:03;43.35;;;23.67;;
20056;SDS011;10189;49.546;7.906;2024-01-15T10:34:33;31.25;;;17.45;;
20056;SDS011;10189;49.546;7.906;2024-01-15T10:37:02;58.97;;;34.78;;
20056;SDS011;10189;49.546;7.906;2024-01-15T10:39:28;39.80;;;21.08;;
20056;SDS011;10189;49.546;7.906;2024-01-15T10:41:55;46.83;;;28.17;;
20056;SDS011;10189;49.546;7.906;2024-01-15T10:44:21;37.55;;;20.60;;
20056;SDS011;10189;49.546;7.906;2024-01-15T10:46:47;36.67;;;18.77;;
20056;SDS011;10189;49.546;7.906;2024-01-15T10:49:13;37.47;;;20.05;;
20056;SDS011;10189;49.546;7.906;2024-01-15T10:51:39;33.80;;;18.45;;
20056;SDS011;10189;49.546;7.906;2024-01-15T10:54:07;36.78;;;20.65;;
20056;SDS011;10189;49.546;7.906;2024-01-15T10:56:36;31.33;;;17.35;;
20056;SDS011;10189;49.546;7.906;2024-01-15T10:59:03;30.58;;;17.33;;
20056;SDS011;10189;49.546;7.906;2024-01-15T11:01:30;38.22;;;22.50;;
20056;SDS011;10189;49.546;7.906;2024-01-15T11:03:56;30.98;;;16.77;;
20056;SDS011;10189;49.546;7.906;2024-01-15T11:06:23;34.13;;;17.33;;
20056;SDS011;10189;49.546;7.906;2024-01-15T11:08:51;33.13;;;17.92;;
20056;SDS011;10189;49.546;7.906;2024-01-15T11:11:18;32.95;;;18.45;;
20056;SDS011;10189;49.546;7.906;2024-01-15T11:13:47;34.42;;;18.95;;
20056;SDS011;10189;49.546;7.906;2024-01-15T11:16:15;33.75;;;19.52;;
20056;SDS011;10189;49.546;7.906;2024-01-15T11:18:42;31.95;;;18.27;;
20056;SDS011;10189;49.546;7.906;2024-01-15T11:21:27;30.17;;;17.15;;
20056;SDS011;10189;49.546;7.906;2024-01-15T11:23:57;29.50;;;16.65;;
20056;SDS011;10189;49.546;7.906;2024-01-15T11:28:54;33.75;;;17.75;;
20056;SDS011;10189;49.546;7.906;2024-01-15T11:34:06;31.30;;;17.05;;
20056;SDS011;10189;49.546;7.906;2024-01-15T11:41:56;41.80;;;22.83;;
20056;SDS011;10189;49.546;7.906;2024-01-15T11:44:25;35.85;;;19.60;;
20056;SDS011;10189;49.546;7.906;2024-01-15T11:52:32;34.03;;;19.83;;
20056;SDS011;10189;49.546;7.906;2024-01-15T11:57:52;32.17;;;19.35;;
20056;SDS011;10189;49.546;7.906;2024-01-15T12:00:21;25.27;;;13.83;;
20056;SDS011;10189;49.546;7.906;2024-01-15T12:02:49;33.92;;;20.70;;
20056;SDS011;10189;49.546;7.906;2024-01-15T12:05:16;27.05;;;14.95;;
20056;SDS011;10189;49.546;7.906;2024-01-15T12:07:45;26.45;;;15.18;;
20056;SDS011;10189;49.546;7.906;2024-01-15T12:12:58;33.30;;;20.13;;
20056;SDS011;10189;49.546;7.906;2024-01-15T12:15:29;25.67;;;14.95;;
20056;SDS011;10189;49.546;7.906;2024-01-15T12:17:56;24.63;;;15.30;;
20056;SDS011;10189;49.546;7.906;2024-01-15T12:20:28;25.75;;;14.95;;
20056;SDS011;10189;49.546;7.906;2024-01-15T12:22:56;24.83;;;14.80;;
20056;SDS011;10189;49.546;7.906;2024-01-15T12:25:24;22.85;;;14.55;;
20056;SDS011;10189;49.546;7.906;2024-01-15T12:27:54;24.80;;;14.68;;
20056;SDS011;10189;49.546;7.906;2024-01-15T12:30:21;26.08;;;15.40;;
20056;SDS011;10189;49.546;7.906;2024-01-15T12:32:47;25.13;;;14.93;;
20056;SDS011;10189;49.546;7.906;2024-01-15T12:35:13;26.15;;;17.35;;
20056;SDS011;10189;49.546;7.906;2024-01-15T12:37:43;27.50;;;16.90;;
20056;SDS011;10189;49.546;7.906;2024-01-15T12:40:11;24.83;;;15.45;;
20056;SDS011;10189;49.546;7.906;2024-01-15T12:42:41;26.33;;;15.05;;
20056;SDS011;10189;49.546;7.906;2024-01-15T12:45:08;24.88;;;13.70;;
20056;SDS011;10189;49.546;7.906;2024-01-15T12:47:36;23.88;;;15.63;;
20056;SDS011;10189;49.546;7.906;2024-01-15T12:50:06;24.88;;;17.45;;
20056;SDS011;10189;49.546;7.906;2024-01-15T12:52:34;21.70;;;13.55;;
20056;SDS011;10189;49.546;7.906;2024-01-15T12:55:00;22.05;;;13.70;;
20056;SDS011;10189;49.546;7.906;2024-01-15T12:57:26;20.08;;;13.00;;
20056;SDS011;10189;49.546;7.906;2024-01-15T12:59:53;25.05;;;15.90;;
20056;SDS011;10189;49.546;7.906;2024-01-15T13:02:19;40.47;;;24.90;;
20056;SDS011;10189;49.546;7.906;2024-01-15T13:04:45;24.13;;;14.90;;
20056;SDS011;10189;49.546;7.906;2024-01-15T13:07:11;24.73;;;14.82;;
20056;SDS011;10189;49.546;7.906;2024-01-15T13:09:38;21.02;;;13.68;;
20056;SDS011;10189;49.546;7.906;2024-01-15T13:12:04;25.63;;;15.43;;
20056;SDS011;10189;49.546;7.906;2024-01-15T13:14:30;116.07;;;55.42;;
20056;SDS011;10189;49.546;7.906;2024-01-15T13:16:58;24.95;;;13.80;;
20056;SDS011;10189;49.546;7.906;2024-01-15T13:19:24;43.15;;;23.88;;
20056;SDS011;10189;49.546;7.906;2024-01-15T13:21:50;35.85;;;19.17;;
20056;SDS011;10189;49.546;7.906;2024-01-15T13:24:20;28.75;;;16.45;;
20056;SDS011;10189;49.546;7.906;2024-01-15T13:26:47;31.45;;;17.33;;
20056;SDS011;10189;49.546;7.906;2024-01-15T13:29:13;22.38;;;13.43;;
20056;SDS011;10189;49.546;7.906;2024-01-15T13:31:40;52.45;;;29.95;;
20056;SDS011;10189;49.546;7.906;2024-01-15T13:34:05;21.83;;;13.73;;
20056;SDS011;10189;49.546;7.906;2024-01-15T13:36:32;22.50;;;12.48;;
20056;SDS011;10189;49.546;7.906;2024-01-15T13:38:58;25.00;;;15.63;;
20056;SDS011;10189;49.546;7.906;2024-01-15T13:41:24;24.23;;;14.88;;
20056;SDS011;10189;49.546;7.906;2024-01-15T13:43:53;30.42;;;17.83;;
20056;SDS011;10189;49.546;7.906;2024-01-15T13:46:20;25.50;;;16.08;;
20056;SDS011;10189;49.546;7.906;2024-01-15T13:48:49;24.30;;;14.35;;
20056;SDS011;10189;49.546;7.906;2024-01-15T13:51:15;18.50;;;12.52;;
20056;SDS011;10189;49.546;7.906;2024-01-15T13:53:42;19.45;;;12.50;;
20056;SDS011;10189;49.546;7.906;2024-01-15T13:56:08;19.70;;;12.00;;
20056;SDS011;10189;49.546;7.906;2024-01-15T13:58:35;19.58;;;12.32;;
20056;SDS011;10189;49.546;7.906;2024-01-15T14:01:02;24.90;;;14.73;;
20056;SDS011;10189;49.546;7.906;2024-01-15T14:03:31;20.20;;;12.70;;
20056;SDS011;10189;49.546;7.906;2024-01-15T14:05:58;19.55;;;12.07;;
20056;SDS011;10189;49.546;7.906;2024-01-15T14:08:24;19.10;;;12.30;;
20056;SDS011;10189;49.546;7.906;2024-01-15T14:10:50;24.25;;;14.75;;
20056;SDS011;10189;49.546;7.906;2024-01-15T14:13:17;28.27;;;17.80;;
20056;SDS011;10189;49.546;7.906;2024-01-15T14:15:43;17.90;;;12.27;;
20056;SDS011;10189;49.546;7.906;2024-01-15T14:18:08;41.45;;;24.92;;
20056;SDS011;10189;49.546;7.906;2024-01-15T14:20:34;21.20;;;12.88;;
20056;SDS011;10189;49.546;7.906;2024-01-15T14:23:00;18.88;;;10.93;;
20056;SDS011;10189;49.546;7.906;2024-01-15T14:25:26;18.13;;;12.02;;
20056;SDS011;10189;49.546;7.906;2024-01-15T14:27:52;15.10;;;9.73;;
20056;SDS011;10189;49.546;7.906;2024-01-15T14:30:18;26.58;;;18.85;;
20056;SDS011;10189;49.546;7.906;2024-01-15T14:32:43;16.65;;;10.88;;
20056;SDS011;10189;49.546;7.906;2024-01-15T14:35:09;21.48;;;12.40;;
20056;SDS011;10189;49.546;7.906;2024-01-15T14:37:39;28.13;;;16.58;;
20056;SDS011;10189;49.546;7.906;2024-01-15T14:40:05;13.35;;;8.10;;